createdAt,value
2019-01-03T00:00:13.482Z,2.5
2019-01-03T00:01:14.447Z,1.9
2019-01-03T00:02:15.154Z,2.4
2019-01-03T00:03:15.866Z,2.7
2019-01-03T00:04:16.571Z,3.2
2019-01-03T00:05:17.292Z,2.5
2019-01-03T00:06:18.256Z,2.8
2019-01-03T00:07:18.955Z,2.8
2019-01-03T00:08:19.657Z,2.3
2019-01-03T00:09:20.717Z,2.8
2019-01-03T00:10:21.410Z,2.2
2019-01-03T00:11:22.115Z,2.3
2019-01-03T00:12:22.838Z,2.6
2019-01-03T00:13:23.548Z,2.5
2019-01-03T00:14:24.326Z,2.9
2019-01-03T00:15:25.019Z,2.3
2019-01-03T00:16:25.733Z,2.9
2019-01-03T00:17:26.436Z,2.4
2019-01-03T00:18:27.408Z,2.9
2019-01-03T00:19:28.125Z,2.5
2019-01-03T00:20:28.842Z,2.6
2019-01-03T00:21:29.535Z,2.4
2019-01-03T00:22:30.253Z,2.7
2019-01-03T00:23:30.961Z,2.5
2019-01-03T00:24:31.665Z,2.4
2019-01-03T00:25:32.375Z,3.0
2019-01-03T00:26:33.078Z,2.6
2019-01-03T00:27:34.046Z,2.8
2019-01-03T00:28:35.957Z,2.7
2019-01-03T00:29:35.521Z,3.1
2019-01-03T00:30:36.199Z,2.4
2019-01-03T00:31:36.913Z,2.6
2019-01-03T00:32:37.626Z,2.5
2019-01-03T00:33:38.330Z,2.3
2019-01-03T00:34:39.037Z,2.7
2019-01-03T00:35:39.749Z,2.9
2019-01-03T00:36:40.460Z,2.6
2019-01-03T00:37:41.173Z,3.0
2019-01-03T00:38:41.889Z,2.6
2019-01-03T00:39:42.592Z,2.6
2019-01-03T00:40:43.548Z,2.9
2019-01-03T00:41:44.265Z,2.6
2019-01-03T00:42:44.980Z,2.9
2019-01-03T00:43:45.691Z,2.3
2019-01-03T00:44:46.401Z,2.9
2019-01-03T00:45:47.112Z,2.7
2019-01-03T00:46:47.815Z,2.7
2019-01-03T00:47:48.519Z,2.5
2019-01-03T00:48:50.190Z,2.3
2019-01-03T00:49:49.950Z,2.8
2019-01-03T00:50:50.660Z,2.5
2019-01-03T00:51:51.377Z,2.5
2019-01-03T00:52:52.090Z,2.5
2019-01-03T00:53:52.794Z,2.7
2019-01-03T00:54:53.507Z,2.4
2019-01-03T00:55:54.205Z,2.4
2019-01-03T00:56:54.926Z,2.9
2019-01-03T00:57:55.632Z,2.3
2019-01-03T00:58:56.666Z,2.5
2019-01-03T00:59:57.615Z,2.7
2019-01-03T01:00:58.354Z,2.6
2019-01-03T01:01:59.059Z,2.7
2019-01-03T01:02:59.762Z,2.9
2019-01-03T01:04:00.466Z,3.1
2019-01-03T01:05:01.184Z,2.4
2019-01-03T01:06:01.895Z,3.0
2019-01-03T01:07:02.607Z,3.1
2019-01-03T01:08:03.565Z,2.8
2019-01-03T01:09:04.270Z,2.8
2019-01-03T01:10:04.975Z,2.4
2019-01-03T01:11:05.982Z,2.9
2019-01-03T01:12:06.684Z,2.7
2019-01-03T01:13:07.399Z,2.8
2019-01-03T01:14:08.104Z,2.6
2019-01-03T01:15:08.817Z,2.5
2019-01-03T01:16:09.533Z,2.5
2019-01-03T01:17:10.236Z,2.5
2019-01-03T01:18:10.949Z,2.4
2019-01-03T01:19:11.655Z,2.4
2019-01-03T01:20:12.354Z,2.7
2019-01-03T01:21:13.068Z,2.4
2019-01-03T01:22:13.773Z,2.4
2019-01-03T01:23:14.479Z,2.6
2019-01-03T01:24:15.190Z,5.4
2019-01-03T01:25:15.912Z,6.1
2019-01-03T01:26:16.617Z,3.8
2019-01-03T01:27:17.392Z,2.7
2019-01-03T01:28:18.091Z,3.7
2019-01-03T01:29:18.798Z,2.5
2019-01-03T01:30:19.779Z,2.9
2019-01-03T01:31:20.483Z,2.7
2019-01-03T01:32:21.185Z,2.5
2019-01-03T01:33:21.904Z,2.7
2019-01-03T01:34:22.878Z,2.3
2019-01-03T01:35:23.581Z,2.5
2019-01-03T01:36:24.290Z,3.1
2019-01-03T01:37:24.999Z,2.7
2019-01-03T01:38:25.798Z,2.4
2019-01-03T01:39:26.751Z,2.2
2019-01-03T01:40:27.467Z,2.8
2019-01-03T01:41:28.169Z,3.0
2019-01-03T01:42:28.868Z,3.3
2019-01-03T01:43:29.921Z,3.2
2019-01-03T01:44:30.875Z,3.4
2019-01-03T01:45:31.594Z,3.2
2019-01-03T01:46:32.304Z,2.6
2019-01-03T01:47:33.019Z,3.0
2019-01-03T01:48:33.721Z,2.9
2019-01-03T01:49:34.740Z,3.0
2019-01-03T01:50:35.482Z,3.0
2019-01-03T01:51:36.232Z,2.8
2019-01-03T01:52:36.980Z,3.6
2019-01-03T01:53:37.680Z,3.0
2019-01-03T01:54:38.452Z,3.5
2019-01-03T01:55:39.258Z,2.9
2019-01-03T01:56:40.680Z,2.6
2019-01-03T01:57:41.633Z,2.4
2019-01-03T01:58:42.331Z,2.4
2019-01-03T01:59:43.548Z,2.7
2019-01-03T02:00:44.718Z,2.6
2019-01-03T02:01:45.853Z,2.7
2019-01-03T02:02:47.435Z,3.0
2019-01-03T02:03:49.270Z,2.7
2019-01-03T02:04:50.176Z,2.6
2019-01-03T02:05:51.369Z,2.7
2019-01-03T02:06:52.849Z,2.9
2019-01-03T02:07:53.562Z,2.8
2019-01-03T02:08:54.702Z,2.7
2019-01-03T02:09:55.656Z,2.6
2019-01-03T02:10:56.623Z,2.9
2019-01-03T02:11:58.307Z,2.7
2019-01-03T02:12:59.825Z,2.7
2019-01-03T02:14:01.243Z,3.4
2019-01-03T02:15:02.761Z,2.8
2019-01-03T02:16:03.805Z,2.9
2019-01-03T02:17:05.050Z,2.5
2019-01-03T02:18:06.099Z,2.5
2019-01-03T02:19:07.212Z,2.5
2019-01-03T02:20:08.788Z,2.5
2019-01-03T02:21:10.013Z,3.2
2019-01-03T02:22:11.561Z,2.8
2019-01-03T02:23:13.323Z,2.9
2019-01-03T02:24:14.285Z,2.6
2019-01-03T02:25:15.264Z,2.8
2019-01-03T02:26:16.280Z,2.7
2019-01-03T02:27:17.534Z,2.7
2019-01-03T02:28:19.588Z,3.4
2019-01-03T02:29:20.332Z,2.4
2019-01-03T02:30:21.266Z,2.5
2019-01-03T02:31:22.727Z,2.8
2019-01-03T02:32:23.953Z,3.1
2019-01-03T02:33:25.395Z,3.0
2019-01-03T02:34:26.905Z,3.2
2019-01-03T02:35:27.626Z,2.9
2019-01-03T02:36:29.121Z,2.9
2019-01-03T02:37:30.050Z,2.9
2019-01-03T02:38:31.272Z,2.8
2019-01-03T02:39:32.890Z,2.7
2019-01-03T02:40:33.585Z,3.1
2019-01-03T02:41:35.236Z,3.8
2019-01-03T02:42:37.203Z,5.7
2019-01-03T02:43:38.797Z,4.3
2019-01-03T02:44:40.175Z,3.3
2019-01-03T02:45:41.280Z,3.3
2019-01-03T02:46:42.205Z,4.0
2019-01-03T02:47:43.352Z,3.7
2019-01-03T02:48:44.267Z,4.4
2019-01-03T02:49:45.408Z,3.8
2019-01-03T02:50:47.286Z,3.3
2019-01-03T02:51:49.116Z,3.2
2019-01-03T02:52:49.816Z,3.8
2019-01-03T02:53:51.206Z,3.1
2019-01-03T02:54:52.554Z,3.3
2019-01-03T02:55:53.570Z,3.5
2019-01-03T02:56:55.218Z,3.5
2019-01-03T02:57:57.163Z,4.5
2019-01-03T02:58:57.863Z,3.7
2019-01-03T02:59:59.277Z,3.8
2019-01-03T03:01:00.734Z,3.3
2019-01-03T03:02:01.741Z,3.7
2019-01-03T03:03:03.412Z,4.3
2019-01-03T03:04:05.245Z,4.2
2019-01-03T03:05:06.972Z,4.7
2019-01-03T03:06:07.678Z,3.6
2019-01-03T03:07:09.179Z,4.8
2019-01-03T03:08:09.881Z,4.1
2019-01-03T03:09:11.193Z,4.0
2019-01-03T03:10:12.158Z,4.2
2019-01-03T03:11:13.262Z,4.4
2019-01-03T03:12:14.609Z,4.3
2019-01-03T03:13:15.659Z,4.0
2019-01-03T03:14:16.375Z,4.6
2019-01-03T03:15:17.107Z,4.7
2019-01-03T03:16:17.848Z,5.3
2019-01-03T03:17:18.907Z,4.4
2019-01-03T03:18:19.617Z,4.7
2019-01-03T03:19:20.377Z,4.5
2019-01-03T03:20:21.111Z,4.6
2019-01-03T03:21:21.839Z,4.3
2019-01-03T03:22:22.606Z,4.6
2019-01-03T03:23:23.325Z,5.3
2019-01-03T03:24:24.086Z,5.4
2019-01-03T03:25:24.785Z,5.0
2019-01-03T03:26:25.490Z,5.0
2019-01-03T03:27:26.203Z,4.5
2019-01-03T03:28:26.915Z,4.8
2019-01-03T03:29:27.650Z,4.6
2019-01-03T03:30:28.343Z,6.1
2019-01-03T03:31:29.054Z,5.9
2019-01-03T03:32:29.762Z,5.7
2019-01-03T03:33:30.463Z,5.5
2019-01-03T03:34:31.230Z,5.5
2019-01-03T03:35:31.950Z,5.8
2019-01-03T03:36:32.636Z,5.7
2019-01-03T03:37:33.341Z,4.2
2019-01-03T03:38:34.060Z,4.8
2019-01-03T03:39:34.754Z,4.1
2019-01-03T03:40:35.469Z,5.2
2019-01-03T03:41:36.180Z,5.1
2019-01-03T03:42:36.902Z,5.2
2019-01-03T03:43:37.600Z,4.7
2019-01-03T03:44:38.353Z,4.7
2019-01-03T03:45:39.063Z,4.7
2019-01-03T03:46:39.779Z,4.8
2019-01-03T03:47:40.489Z,5.2
2019-01-03T03:48:41.202Z,5.2
2019-01-03T03:49:41.909Z,4.5
2019-01-03T03:50:42.865Z,5.6
2019-01-03T03:51:43.573Z,5.4
2019-01-03T03:52:44.283Z,5.0
2019-01-03T03:53:44.992Z,4.7
2019-01-03T03:54:45.699Z,5.0
2019-01-03T03:55:46.415Z,4.8
2019-01-03T03:56:47.119Z,5.5
2019-01-03T03:57:48.075Z,5.1
2019-01-03T03:58:48.769Z,5.0
2019-01-03T03:59:49.483Z,5.2
2019-01-03T04:00:50.186Z,5.4
2019-01-03T04:01:50.897Z,4.5
2019-01-03T04:02:51.600Z,4.6
2019-01-03T04:03:52.314Z,5.8
2019-01-03T04:04:53.271Z,5.0
2019-01-03T04:05:54.231Z,4.6
2019-01-03T04:06:54.944Z,5.4
2019-01-03T04:07:55.644Z,5.0
2019-01-03T04:08:56.352Z,4.7
2019-01-03T04:09:57.061Z,5.0
2019-01-03T04:10:57.785Z,5.3
2019-01-03T04:11:58.480Z,4.6
2019-01-03T04:12:59.189Z,4.6
2019-01-03T04:13:59.891Z,5.5
2019-01-03T04:15:00.607Z,4.8
2019-01-03T04:16:01.312Z,4.7
2019-01-03T04:17:02.016Z,4.9
2019-01-03T04:18:02.721Z,4.8
2019-01-03T04:19:03.427Z,5.4
2019-01-03T04:20:04.132Z,4.9
2019-01-03T04:21:05.105Z,5.2
2019-01-03T04:22:05.804Z,5.0
2019-01-03T04:23:06.507Z,5.4
2019-01-03T04:24:07.218Z,4.7
2019-01-03T04:25:07.931Z,4.9
2019-01-03T04:26:08.630Z,5.8
2019-01-03T04:27:09.336Z,5.3
2019-01-03T04:28:10.056Z,5.2
2019-01-03T04:29:11.014Z,5.0
2019-01-03T04:30:11.969Z,5.2
2019-01-03T04:31:12.683Z,5.5
2019-01-03T04:32:13.386Z,4.7
2019-01-03T04:33:14.100Z,5.2
2019-01-03T04:34:15.245Z,5.4
2019-01-03T04:35:15.949Z,5.5
2019-01-03T04:36:16.654Z,5.5
2019-01-03T04:37:17.363Z,5.2
2019-01-03T04:38:18.062Z,5.0
2019-01-03T04:39:18.770Z,5.8
2019-01-03T04:40:19.480Z,5.8
2019-01-03T04:41:20.192Z,6.3
2019-01-03T04:42:20.900Z,6.3
2019-01-03T04:43:21.624Z,5.9
2019-01-03T04:44:22.323Z,6.8
2019-01-03T04:45:23.037Z,7.0
2019-01-03T04:46:23.745Z,7.1
2019-01-03T04:47:24.700Z,6.8
2019-01-03T04:48:25.400Z,6.9
2019-01-03T04:49:26.109Z,8.2
2019-01-03T04:50:27.073Z,8.0
2019-01-03T04:51:27.769Z,8.3
2019-01-03T04:52:28.476Z,7.9
2019-01-03T04:53:29.179Z,9.4
2019-01-03T04:54:29.887Z,8.4
2019-01-03T04:55:30.595Z,8.3
2019-01-03T04:56:31.558Z,8.4
2019-01-03T04:57:32.321Z,8.7
2019-01-03T04:58:33.043Z,8.3
2019-01-03T04:59:33.737Z,9.1
2019-01-03T05:00:34.442Z,9.0
2019-01-03T05:01:35.154Z,8.9
2019-01-03T05:02:35.872Z,9.4
2019-01-03T05:03:36.589Z,10.0
2019-01-03T05:04:37.298Z,9.7
2019-01-03T05:05:38.001Z,10.0
2019-01-03T05:06:38.709Z,10.4
2019-01-03T05:07:39.516Z,8.7
2019-01-03T05:08:40.231Z,10.0
2019-01-03T05:09:40.942Z,9.3
2019-01-03T05:10:41.643Z,9.0
2019-01-03T05:11:42.355Z,9.0
2019-01-03T05:12:43.062Z,9.4
2019-01-03T05:13:43.759Z,9.7
2019-01-03T05:14:44.462Z,8.8
2019-01-03T05:15:45.186Z,9.6
2019-01-03T05:16:45.874Z,9.0
2019-01-03T05:17:46.586Z,9.0
2019-01-03T05:18:47.401Z,10.1
2019-01-03T05:19:48.119Z,9.6
2019-01-03T05:20:48.827Z,8.7
2019-01-03T05:21:49.532Z,8.5
2019-01-03T05:22:50.242Z,10.2
2019-01-03T05:23:56.807Z,10.9
2019-01-03T05:24:51.667Z,10.2
2019-01-03T05:25:52.616Z,10.5
2019-01-03T05:26:53.318Z,10.3
2019-01-03T05:27:54.276Z,9.4
2019-01-03T05:28:54.977Z,10.2
2019-01-03T05:29:55.696Z,10.8
2019-01-03T05:30:56.409Z,10.4
2019-01-03T05:31:57.118Z,10.1
2019-01-03T05:32:57.836Z,10.2
2019-01-03T05:33:58.546Z,11.2
2019-01-03T05:34:59.350Z,10.5
2019-01-03T05:36:00.060Z,10.0
2019-01-03T05:37:00.764Z,10.2
2019-01-03T05:38:01.488Z,9.6
2019-01-03T05:39:02.179Z,10.2
2019-01-03T05:40:02.990Z,10.2
2019-01-03T05:41:05.168Z,11.1
2019-01-03T05:42:04.408Z,10.1
2019-01-03T05:43:05.112Z,10.6
2019-01-03T05:44:05.819Z,10.1
2019-01-03T05:45:06.588Z,10.6
2019-01-03T05:46:07.293Z,10.5
2019-01-03T05:47:08.003Z,9.6
2019-01-03T05:48:08.702Z,10.4
2019-01-03T05:49:09.413Z,11.4
2019-01-03T05:50:10.174Z,11.4
2019-01-03T05:51:10.888Z,10.6
2019-01-03T05:52:11.598Z,11.2
2019-01-03T05:53:12.324Z,10.8
2019-01-03T05:54:13.014Z,9.6
2019-01-03T05:55:13.770Z,9.9
2019-01-03T05:56:14.488Z,9.6
2019-01-03T05:57:15.201Z,9.2
2019-01-03T05:58:15.915Z,10.4
2019-01-03T05:59:16.667Z,9.9
2019-01-03T06:00:17.327Z,10.0
2019-01-03T06:01:18.035Z,9.9
2019-01-03T06:02:18.739Z,11.0
2019-01-03T06:03:19.465Z,10.9
2019-01-03T06:04:20.163Z,10.7
2019-01-03T06:05:20.979Z,11.3
2019-01-03T06:06:21.674Z,11.0
2019-01-03T06:07:22.384Z,10.9
2019-01-03T06:08:23.348Z,11.2
2019-01-03T06:09:24.046Z,11.2
2019-01-03T06:10:24.763Z,10.8
2019-01-03T06:11:25.474Z,11.4
2019-01-03T06:12:26.187Z,10.8
2019-01-03T06:13:26.901Z,10.8
2019-01-03T06:14:27.612Z,11.4
2019-01-03T06:15:28.315Z,11.6
2019-01-03T06:16:29.374Z,12.1
2019-01-03T06:17:30.091Z,13.5
2019-01-03T06:18:30.787Z,13.0
2019-01-03T06:19:31.490Z,13.0
2019-01-03T06:20:32.192Z,12.4
2019-01-03T06:21:32.953Z,12.4
2019-01-03T06:22:33.658Z,11.9
2019-01-03T06:23:34.615Z,13.1
2019-01-03T06:24:35.322Z,13.1
2019-01-03T06:25:36.024Z,13.7
2019-01-03T06:26:36.786Z,13.6
2019-01-03T06:27:37.492Z,13.5
2019-01-03T06:28:38.210Z,12.6
2019-01-03T06:29:38.918Z,12.4
2019-01-03T06:30:39.623Z,13.2
2019-01-03T06:31:40.334Z,12.7
2019-01-03T06:32:41.042Z,12.5
2019-01-03T06:33:41.759Z,12.2
2019-01-03T06:34:42.473Z,12.9
2019-01-03T06:35:43.185Z,13.3
2019-01-03T06:36:43.885Z,13.6
2019-01-03T06:37:44.585Z,13.4
2019-01-03T06:38:45.300Z,13.2
2019-01-03T06:39:46.009Z,14.1
2019-01-03T06:40:46.722Z,13.6
2019-01-03T06:41:47.425Z,13.6
2019-01-03T06:42:48.142Z,14.0
2019-01-03T06:43:49.099Z,13.6
2019-01-03T06:44:49.856Z,13.2
2019-01-03T06:45:50.556Z,13.8
2019-01-03T06:46:51.269Z,14.6
2019-01-03T06:47:52.237Z,15.3
2019-01-03T06:48:52.941Z,15.1
2019-01-03T06:49:53.657Z,15.2
2019-01-03T06:50:54.365Z,14.2
2019-01-03T06:51:55.068Z,15.2
2019-01-03T06:52:55.842Z,14.7
2019-01-03T06:53:56.544Z,14.7
2019-01-03T06:54:57.293Z,14.4
2019-01-03T06:55:58.027Z,14.1
2019-01-03T06:56:58.985Z,14.8
2019-01-03T06:57:59.691Z,14.5
2019-01-03T06:59:00.399Z,14.8
2019-01-03T07:00:01.355Z,17.0
2019-01-03T07:01:02.072Z,17.3
2019-01-03T07:02:02.831Z,15.2
2019-01-03T07:03:03.540Z,16.0
2019-01-03T07:04:04.276Z,16.5
2019-01-03T07:05:05.045Z,15.2
2019-01-03T07:06:05.754Z,15.3
2019-01-03T07:07:06.471Z,15.7
2019-01-03T07:08:07.180Z,15.8
2019-01-03T07:09:08.134Z,16.5
2019-01-03T07:10:09.113Z,16.7
2019-01-03T07:11:09.828Z,15.9
2019-01-03T07:12:10.518Z,17.7
2019-01-03T07:13:11.339Z,16.6
2019-01-03T07:14:12.055Z,15.7
2019-01-03T07:15:12.758Z,17.7
2019-01-03T07:16:13.471Z,16.0
2019-01-03T07:17:14.178Z,15.9
2019-01-03T07:18:14.888Z,15.6
2019-01-03T07:19:15.597Z,15.9
2019-01-03T07:20:16.315Z,17.4
2019-01-03T07:21:17.029Z,15.3
2019-01-03T07:22:17.736Z,16.6
2019-01-03T07:23:18.465Z,16.1
2019-01-03T07:24:19.165Z,15.8
2019-01-03T07:25:19.895Z,16.6
2019-01-03T07:26:20.610Z,16.2
2019-01-03T07:27:21.320Z,16.4
2019-01-03T07:28:22.018Z,16.3
2019-01-03T07:29:22.725Z,15.8
2019-01-03T07:30:23.440Z,16.0
2019-01-03T07:31:24.148Z,17.4
2019-01-03T07:32:24.853Z,16.7
2019-01-03T07:33:25.563Z,16.9
2019-01-03T07:34:26.323Z,16.6
2019-01-03T07:35:27.026Z,17.0
2019-01-03T07:36:27.746Z,16.7
2019-01-03T07:37:28.465Z,16.5
2019-01-03T07:38:29.183Z,16.0
2019-01-03T07:39:29.901Z,16.5
2019-01-03T07:40:30.649Z,15.5
2019-01-03T07:41:31.367Z,15.6
2019-01-03T07:42:32.360Z,16.9
2019-01-03T07:43:33.159Z,15.8
2019-01-03T07:44:33.871Z,15.8
2019-01-03T07:45:34.575Z,16.2
2019-01-03T07:46:35.298Z,15.1
2019-01-03T07:47:36.008Z,14.9
2019-01-03T07:48:36.721Z,15.0
2019-01-03T07:49:37.443Z,16.5
2019-01-03T07:50:38.139Z,17.0
2019-01-03T07:51:38.916Z,17.0
2019-01-03T07:52:39.619Z,15.7
2019-01-03T07:53:40.451Z,16.1
2019-01-03T07:54:41.049Z,16.4
2019-01-03T07:55:41.764Z,17.8
2019-01-03T07:56:42.477Z,16.5
2019-01-03T07:57:43.236Z,15.6
2019-01-03T07:58:43.960Z,15.9
2019-01-03T07:59:44.662Z,16.3
2019-01-03T08:00:45.378Z,15.3
2019-01-03T08:01:46.090Z,15.4
2019-01-03T08:02:46.874Z,16.1
2019-01-03T08:03:47.587Z,15.6
2019-01-03T08:04:48.298Z,14.5
2019-01-03T08:05:49.017Z,14.5
2019-01-03T08:06:49.735Z,15.3
2019-01-03T08:07:50.456Z,14.3
2019-01-03T08:08:51.171Z,14.3
2019-01-03T08:09:51.989Z,13.6
2019-01-03T08:10:52.705Z,12.5
2019-01-03T08:11:53.427Z,13.6
2019-01-03T08:12:54.146Z,12.5
2019-01-03T08:13:54.864Z,13.3
2019-01-03T08:14:55.575Z,13.5
2019-01-03T08:15:56.297Z,13.1
2019-01-03T08:16:57.005Z,13.4
2019-01-03T08:17:57.716Z,13.1
2019-01-03T08:18:58.432Z,12.1
2019-01-03T08:19:59.193Z,12.8
2019-01-03T08:20:59.916Z,12.4
2019-01-03T08:22:00.626Z,12.7
2019-01-03T08:23:01.338Z,12.6
2019-01-03T08:24:02.052Z,12.2
2019-01-03T08:25:02.778Z,12.5
2019-01-03T08:26:03.503Z,12.3
2019-01-03T08:27:04.236Z,11.7
2019-01-03T08:28:04.951Z,12.8
2019-01-03T08:29:05.662Z,11.6
2019-01-03T08:30:06.373Z,11.8
2019-01-03T08:31:07.094Z,12.3
2019-01-03T08:32:07.807Z,11.7
2019-01-03T08:33:08.760Z,10.5
2019-01-03T08:34:09.491Z,11.1
2019-01-03T08:35:10.208Z,11.4
2019-01-03T08:36:10.918Z,11.4
2019-01-03T08:37:11.620Z,11.1
2019-01-03T08:38:12.335Z,11.1
2019-01-03T08:39:13.309Z,9.5
2019-01-03T08:40:14.021Z,10.5
2019-01-03T08:41:14.727Z,11.2
2019-01-03T08:42:15.446Z,10.5
2019-01-03T08:43:16.165Z,10.6
2019-01-03T08:44:16.893Z,10.9
2019-01-03T08:45:17.611Z,10.5
2019-01-03T08:46:18.324Z,10.9
2019-01-03T08:47:19.048Z,11.1
2019-01-03T08:48:19.769Z,10.7
2019-01-03T08:49:20.484Z,10.1
2019-01-03T08:50:21.195Z,10.6
2019-01-03T08:51:21.923Z,10.0
2019-01-03T08:52:22.628Z,9.2
2019-01-03T08:53:23.345Z,9.2
2019-01-03T08:54:24.043Z,9.1
2019-01-03T08:55:24.765Z,8.5
2019-01-03T08:56:25.722Z,8.1
2019-01-03T08:57:26.440Z,8.0
2019-01-03T08:58:27.170Z,7.8
2019-01-03T08:59:28.074Z,8.0
2019-01-03T09:00:28.753Z,8.9
2019-01-03T09:01:29.506Z,8.6
2019-01-03T09:02:30.182Z,8.3
2019-01-03T09:03:30.905Z,7.4
2019-01-03T09:04:31.719Z,6.9
2019-01-03T09:05:32.440Z,6.5
2019-01-03T09:06:33.153Z,7.4
2019-01-03T09:07:33.872Z,7.4
2019-01-03T09:08:34.591Z,7.3
2019-01-03T09:09:35.314Z,7.6
2019-01-03T09:10:36.029Z,7.4
2019-01-03T09:11:36.739Z,7.5
2019-01-03T09:12:37.455Z,7.4
2019-01-03T09:13:38.173Z,7.1
2019-01-03T09:14:38.984Z,6.3
2019-01-03T09:15:39.699Z,7.5
2019-01-03T09:16:40.416Z,7.3
2019-01-03T09:17:41.137Z,6.9
2019-01-03T09:18:41.858Z,7.2
2019-01-03T09:19:42.577Z,7.2
2019-01-03T09:20:43.292Z,6.2
2019-01-03T09:21:44.011Z,6.1
2019-01-03T09:22:44.719Z,5.9
2019-01-03T09:23:45.445Z,6.1
2019-01-03T09:24:46.163Z,6.3
2019-01-03T09:25:46.883Z,5.7
2019-01-03T09:26:47.594Z,5.3
2019-01-03T09:27:48.420Z,5.2
2019-01-03T09:28:49.145Z,5.5
2019-01-03T09:29:49.853Z,5.0
2019-01-03T09:30:50.566Z,4.8
2019-01-03T09:31:51.279Z,4.5
2019-01-03T09:32:51.988Z,4.7
2019-01-03T09:33:52.704Z,5.1
2019-01-03T09:34:53.419Z,3.9
2019-01-03T09:35:54.139Z,4.7
2019-01-03T09:36:54.859Z,4.6
2019-01-03T09:37:55.579Z,4.5
2019-01-03T09:38:56.284Z,4.1
2019-01-03T09:39:56.996Z,4.1
2019-01-03T09:40:57.702Z,4.8
2019-01-03T09:41:58.417Z,5.1
2019-01-03T09:42:59.124Z,5.2
2019-01-03T09:43:59.887Z,5.4
2019-01-03T09:45:00.608Z,4.9
2019-01-03T09:46:01.337Z,4.5
2019-01-03T09:47:02.048Z,4.0
2019-01-03T09:48:02.761Z,3.7
2019-01-03T09:49:03.682Z,3.9
2019-01-03T09:50:04.359Z,3.6
2019-01-03T09:51:05.070Z,4.1
2019-01-03T09:52:05.782Z,4.6
2019-01-03T09:53:06.502Z,3.8
2019-01-03T09:54:07.211Z,3.9
2019-01-03T09:55:07.928Z,3.9
2019-01-03T09:56:08.646Z,4.2
2019-01-03T09:57:09.362Z,3.8
2019-01-03T09:58:10.068Z,3.7
2019-01-03T09:59:10.781Z,3.6
2019-01-03T10:00:11.600Z,3.3
2019-01-03T10:01:12.325Z,3.8
2019-01-03T10:02:13.034Z,4.0
2019-01-03T10:03:13.741Z,3.4
2019-01-03T10:04:14.455Z,4.5
2019-01-03T10:05:15.224Z,3.6
2019-01-03T10:06:15.941Z,3.7
2019-01-03T10:07:16.660Z,4.1
2019-01-03T10:08:19.682Z,3.9
2019-01-03T10:09:18.095Z,4.1
2019-01-03T10:10:18.916Z,4.3
2019-01-03T10:11:19.633Z,3.7
2019-01-03T10:12:20.355Z,4.5
2019-01-03T10:13:21.072Z,4.6
2019-01-03T10:14:21.790Z,5.1
2019-01-03T10:15:22.508Z,4.7
2019-01-03T10:16:23.231Z,5.9
2019-01-03T10:17:23.948Z,6.7
2019-01-03T10:18:24.657Z,6.1
2019-01-03T10:19:25.403Z,6.3
2019-01-03T10:20:26.106Z,5.5
2019-01-03T10:21:26.835Z,5.5
2019-01-03T10:22:27.543Z,5.2
2019-01-03T10:23:28.261Z,5.7
2019-01-03T10:24:28.972Z,6.0
2019-01-03T10:25:29.683Z,6.5
2019-01-03T10:26:30.401Z,6.5
2019-01-03T10:27:31.105Z,6.4
2019-01-03T10:28:31.973Z,6.9
2019-01-03T10:29:32.684Z,6.7
2019-01-03T10:30:33.418Z,6.3
2019-01-03T10:31:34.131Z,7.0
2019-01-03T10:32:34.841Z,7.1
2019-01-03T10:33:35.601Z,7.1
2019-01-03T10:34:36.310Z,7.5
2019-01-03T10:35:37.020Z,9.0
2019-01-03T10:36:37.726Z,7.3
2019-01-03T10:37:38.447Z,7.1
2019-01-03T10:38:39.167Z,8.3
2019-01-03T10:39:39.887Z,6.9
2019-01-03T10:40:40.603Z,7.7
2019-01-03T10:41:41.573Z,7.2
2019-01-03T10:42:42.278Z,6.7
2019-01-03T10:43:42.995Z,6.6
2019-01-03T10:44:43.702Z,7.0
2019-01-03T10:45:44.477Z,6.6
2019-01-03T10:46:45.189Z,7.2
2019-01-03T10:47:45.910Z,7.3
2019-01-03T10:48:46.614Z,6.6
2019-01-03T10:49:47.328Z,6.5
2019-01-03T10:50:48.041Z,6.9
2019-01-03T10:51:48.762Z,6.9
2019-01-03T10:52:49.482Z,6.7
2019-01-03T10:53:50.187Z,6.2
2019-01-03T10:54:50.905Z,6.2
2019-01-03T10:55:51.671Z,7.1
2019-01-03T10:56:52.640Z,6.6
2019-01-03T10:57:53.363Z,6.4
2019-01-03T10:58:54.078Z,6.2
2019-01-03T10:59:54.799Z,6.9
2019-01-03T11:00:56.393Z,7.1
2019-01-03T11:01:57.102Z,6.4
2019-01-03T11:02:57.813Z,7.0
2019-01-03T11:03:59.010Z,6.7
2019-01-03T11:04:59.837Z,6.4
2019-01-03T11:06:00.548Z,6.7
2019-01-03T11:07:01.272Z,6.3
2019-01-03T11:08:01.977Z,7.1
2019-01-03T11:09:02.695Z,6.5
2019-01-03T11:10:03.440Z,6.1
2019-01-03T11:11:04.397Z,6.5
2019-01-03T11:12:05.115Z,6.5
2019-01-03T11:13:05.830Z,6.0
2019-01-03T11:14:06.542Z,6.3
2019-01-03T11:15:07.265Z,5.5
2019-01-03T11:16:07.978Z,5.3
2019-01-03T11:17:08.786Z,5.2
2019-01-03T11:18:09.504Z,5.1
2019-01-03T11:19:10.212Z,5.3
2019-01-03T11:20:10.930Z,6.0
2019-01-03T11:21:11.648Z,5.0
2019-01-03T11:22:12.843Z,5.7
2019-01-03T11:23:14.005Z,5.5
2019-01-03T11:24:15.026Z,5.5
2019-01-03T11:25:15.727Z,5.3
2019-01-03T11:26:16.962Z,5.5
2019-01-03T11:27:17.671Z,6.0
2019-01-03T11:28:18.418Z,5.8
2019-01-03T11:29:19.123Z,5.2
2019-01-03T11:30:19.836Z,5.6
2019-01-03T11:31:20.552Z,4.4
2019-01-03T11:32:21.261Z,5.1
2019-01-03T11:33:22.134Z,4.1
2019-01-03T11:34:22.843Z,4.3
2019-01-03T11:35:23.559Z,4.2
2019-01-03T11:36:24.263Z,4.1
2019-01-03T11:37:24.976Z,3.6
2019-01-03T11:38:25.787Z,4.8
2019-01-03T11:39:26.503Z,5.0
2019-01-03T11:40:27.604Z,4.7
2019-01-03T11:41:29.125Z,4.4
2019-01-03T11:42:30.206Z,4.5
2019-01-03T11:43:30.920Z,4.8
2019-01-03T11:44:31.635Z,4.3
2019-01-03T11:45:32.348Z,4.8
2019-01-03T11:46:33.069Z,4.5
2019-01-03T11:47:33.769Z,4.9
2019-01-03T11:48:34.476Z,4.8
2019-01-03T11:49:35.194Z,5.1
2019-01-03T11:50:36.182Z,4.2
2019-01-03T11:51:37.279Z,4.8
2019-01-03T11:52:38.813Z,5.0
2019-01-03T11:53:40.062Z,5.3
2019-01-03T11:54:41.823Z,5.0
2019-01-03T11:55:44.174Z,4.9
2019-01-03T11:56:46.352Z,5.3
2019-01-03T11:57:48.433Z,5.9
2019-01-03T11:58:49.973Z,5.4
2019-01-03T11:59:51.850Z,5.0
2019-01-03T12:00:54.398Z,5.1
2019-01-03T12:01:56.410Z,5.3
2019-01-03T12:04:00.762Z,7.9
2019-01-03T12:05:02.733Z,5.5
2019-01-03T12:06:05.197Z,5.3
2019-01-03T12:07:07.187Z,5.7
2019-01-03T12:08:09.125Z,5.6
2019-01-03T12:09:11.336Z,5.4
2019-01-03T12:10:12.207Z,5.6
2019-01-03T12:11:14.677Z,5.6
2019-01-03T12:12:16.485Z,5.2
2019-01-03T12:13:18.757Z,5.3
2019-01-03T12:14:20.745Z,5.5
2019-01-03T12:15:22.747Z,5.7
2019-01-03T12:16:24.416Z,5.7
2019-01-03T12:17:26.170Z,6.1
2019-01-03T12:18:27.715Z,5.4
2019-01-03T12:19:29.834Z,6.1
2019-01-03T12:20:31.895Z,5.1
2019-01-03T12:21:33.679Z,6.7
2019-01-03T12:22:34.946Z,5.2
2019-01-03T12:23:37.200Z,6.3
2019-01-03T12:24:39.360Z,6.4
2019-01-03T12:25:41.422Z,5.5
2019-01-03T12:26:43.420Z,5.5
2019-01-03T12:27:44.954Z,6.6
2019-01-03T12:28:47.152Z,6.7
2019-01-03T12:29:48.434Z,5.9
2019-01-03T12:30:50.518Z,7.4
2019-01-03T12:31:51.697Z,8.8
2019-01-03T12:32:53.887Z,7.7
2019-01-03T12:35:11.882Z,6.7
2019-01-03T12:36:13.974Z,7.0
2019-01-03T12:37:16.018Z,6.9
2019-01-03T12:38:17.916Z,7.3
2019-01-03T12:39:19.221Z,6.7
2019-01-03T12:40:21.766Z,7.8
2019-01-03T12:41:23.312Z,6.7
2019-01-03T12:42:24.984Z,6.4
2019-01-03T12:43:27.159Z,5.8
2019-01-03T12:44:28.792Z,6.3
2019-01-03T12:45:31.295Z,5.9
2019-01-03T12:46:32.460Z,6.5
2019-01-03T12:47:34.294Z,6.3
2019-01-03T12:48:36.190Z,6.4
2019-01-03T12:49:38.145Z,6.0
2019-01-03T12:50:40.578Z,5.1
2019-01-03T12:51:41.876Z,5.0
2019-01-03T12:52:43.650Z,5.3
2019-01-03T12:53:45.724Z,4.8
2019-01-03T12:54:47.783Z,5.4
2019-01-03T12:55:50.011Z,4.8
2019-01-03T12:56:51.866Z,4.2
2019-01-03T12:57:53.698Z,4.5
2019-01-03T12:58:55.806Z,4.4
2019-01-03T12:59:57.848Z,4.7
2019-01-03T13:00:59.932Z,4.2
2019-01-03T13:02:01.039Z,5.1
2019-01-03T13:03:03.285Z,4.5
2019-01-03T13:04:04.297Z,4.1
2019-01-03T13:06:08.209Z,3.8
2019-01-03T13:07:10.208Z,3.6
2019-01-03T13:08:12.813Z,3.8
2019-01-03T13:09:13.888Z,3.5
2019-01-03T13:10:15.580Z,3.5
2019-01-03T13:11:16.636Z,3.7
2019-01-03T13:12:18.360Z,4.2
2019-01-03T13:13:20.741Z,4.2
2019-01-03T13:14:21.823Z,4.7
2019-01-03T13:15:22.538Z,4.2
2019-01-03T13:16:23.308Z,3.9
2019-01-03T13:17:24.021Z,3.8
2019-01-03T13:18:24.835Z,3.6
2019-01-03T13:19:25.718Z,3.3
2019-01-03T13:20:26.822Z,3.3
2019-01-03T13:21:27.542Z,3.2
2019-01-03T13:22:28.760Z,3.7
2019-01-03T13:23:29.459Z,3.6
2019-01-03T13:24:30.259Z,3.6
2019-01-03T13:25:31.003Z,3.6
2019-01-03T13:26:31.739Z,3.5
2019-01-03T13:27:32.996Z,4.9
2019-01-03T13:28:34.202Z,3.6
2019-01-03T13:29:34.927Z,6.0
2019-01-03T13:30:35.706Z,10.6
2019-01-03T13:31:36.810Z,5.4
2019-01-03T13:32:37.958Z,3.9
2019-01-03T13:33:38.797Z,5.1
2019-01-03T13:34:39.544Z,6.6
2019-01-03T13:35:40.434Z,7.1
2019-01-03T13:36:41.219Z,9.0
2019-01-03T13:37:41.927Z,6.4
2019-01-03T13:38:42.640Z,5.5
2019-01-03T13:39:43.374Z,4.4
2019-01-03T13:40:44.250Z,4.1
2019-01-03T13:41:45.390Z,7.9
2019-01-03T13:42:46.145Z,5.8
2019-01-03T13:43:46.864Z,4.7
2019-01-03T13:44:47.634Z,5.3
2019-01-03T13:45:48.951Z,5.7
2019-01-03T13:46:50.130Z,7.1
2019-01-03T13:47:50.854Z,18.4
2019-01-03T13:48:51.909Z,10.0
2019-01-03T13:49:52.621Z,7.6
2019-01-03T13:50:53.813Z,18.7
2019-01-03T13:51:54.889Z,18.3
2019-01-03T13:52:55.615Z,12.2
2019-01-03T13:53:56.716Z,17.5